Terminal Aerodrome Forecast
Issued by NWS

Home | Current Version | Previous Version | Text Only | Print | Product List | Glossary On
Versions: 1 2 3 4 5 6 7 8 9 10 11 12 13 14
000
FTUS43 KFGF 202332
TAFDVL
TAF
KDVL 202332Z 2100/2124 15008KT 5SM BR OVC003
     FM210300 13005KT 1SM BR OVC003
      TEMPO 2103/2107 1/2SM FG
     FM211400 12008KT 1 1/2SM BR OVC003
     FM211800 12006KT 3SM BR OVC003=

USA.gov is the U.S. government's official web portal to all federal, state and local government web resources and services.